Flight Track Log - Related Links

Times and Time Zones

All times are in EDT time to prevent confusion due to time zone crossing. See the AAL963 flight status page for this flight to view local times or setup timezone preferences in your user account.

Time Position Orientation Groundspeed Altitude Reporting Facility
EDT Latitude Longitude Course Direction KTS MPH feet Rate Location/Type
Sat 09:43:35 PM 32.9300 -97.1050 316° Northwest 179 206 2,300  Level FlightAware ADS-B
Sat 09:43:56 PM 32.9420 -97.1200 314° West 196 226 2,700 1,077 Climbing FlightAware ADS-B
Sat 09:44:14 PM 32.9550 -97.1340 318° Northwest 223 257 3,000 1,714 Climbing FlightAware ADS-B
Sat 09:44:38 PM 32.9730 -97.1550 316° Northwest 236 272 3,900 2,093 Climbing FlightAware ADS-B
Sat 09:44:57 PM 32.9910 -97.1750 317° Northwest 255 293 4,500 2,372 Climbing FlightAware ADS-B
Sat 09:45:21 PM 33.0110 -97.1990 315° West 261 300 5,600 2,667 Climbing FlightAware ADS-B
Sat 09:45:33 PM 33.0180 -97.2140 299° West 268 308 6,100 2,250 Climbing FlightAware ADS-B
Sat 09:45:45 PM 33.0210 -97.2300 283° West 275 316 6,500 2,053 Climbing FlightAware ADS-B
Sat 09:46:11 PM 33.0100 -97.2640 249° West 284 327 7,400 2,333 Climbing FlightAware ADS-B
Sat 09:46:21 PM 33.0000 -97.2750 223° Southwest 283 326 7,900 3,375 Climbing FlightAware ADS-B
Sat 09:46:27 PM 32.9930 -97.2790 206° Southwest 284 327 8,300 3,000 Climbing FlightAware ADS-B
Sat 09:46:39 PM 32.9770 -97.2830 192° South 291 335 8,800 3,000 Climbing FlightAware ADS-B
Sat 09:47:05 PM 32.9410 -97.2770 172° South 292 336 10,200 2,172 Climbing FlightAware ADS-B
Sat 09:47:37 PM 32.8950 -97.2670 170° South 319 367 10,900 1,371 Climbing FlightAware ADS-B
Sat 09:48:15 PM 32.8370 -97.2560 171° South 348 400 11,800 1,865 Climbing FlightAware ADS-B
Sat 09:48:51 PM 32.7770 -97.2510 176° South 351 404 13,200 2,348 Climbing FlightAware ADS-B
Sat 09:49:24 PM 32.7240 -97.2520 181° South 357 411 14,500 2,294 Climbing FlightAware ADS-B
Sat 09:49:59 PM 32.6660 -97.2540 182° South 362 417 15,800 2,239 Climbing FlightAware ADS-B
Sat 09:50:31 PM 32.6100 -97.2550 181° South 370 426 17,000 1,890 Climbing FlightAware ADS-B
Sat 09:51:12 PM 32.5400 -97.2410 170° South 394 453 18,100 1,750 Climbing FlightAware ADS-B
Sat 09:51:43 PM 32.4860 -97.2130 156° South 403 464 19,100 1,881 Climbing FlightAware ADS-B
Sat 09:52:19 PM 32.4250 -97.1790 155° Southeast 408 470 20,200 1,583 Climbing FlightAware ADS-B
Sat 09:52:55 PM 32.3620 -97.1450 155° Southeast 420 483 21,000 1,325 Climbing FlightAware ADS-B
Sat 09:53:36 PM 32.2871 -97.1048 156° South 433 498 21,900 1,459 Climbing FlightAware ADS-B
Sat 09:54:09 PM 32.2269 -97.0726 156° South 437 503 22,800 1,524 Climbing FlightAware ADS-B
Sat 09:54:39 PM 32.1711 -97.0428 156° South 443 510 23,500 1,238 Climbing FlightAware ADS-B
Sat 09:55:12 PM 32.1095 -97.0099 156° South 452 520 24,100 917 Climbing FlightAware ADS-B
Sat 09:55:51 PM 32.0330 -96.9690 156° South 469 540 24,600 764 Climbing FlightAware ADS-B
Sat 09:56:07 PM 32.0007 -96.9520 156° South 465 535 24,800 1,304 Climbing FlightAware ADS-B
Sat 09:56:37 PM 31.9401 -96.9197 156° South 477 549 25,600 1,200 Climbing FlightAware ADS-B
Sat 09:57:32 PM 31.8299 -96.8611 156° South 488 562 26,500 988 Climbing FlightAware ADS-B
Sat 09:58:02 PM 31.7659 -96.8272 156° South 499 574 27,000 1,000 Climbing FlightAware ADS-B
Sat 09:58:32 PM 31.7022 -96.7936 156° South 506 582 27,500 984 Climbing FlightAware ADS-B
Sat 09:59:03 PM 31.6369 -96.7590 156° South 512 589 28,000 1,082 Climbing FlightAware ADS-B
Sat 09:59:33 PM 31.5714 -96.7244 156° South 515 593 28,600 1,167 Climbing FlightAware ADS-B
Sat 10:00:15 PM 31.4799 -96.6763 156° South 519 597 29,400 1,583 Climbing FlightAware ADS-B
Sat 10:00:45 PM 31.4130 -96.6410 156° South 508 585 30,500 1,600 Climbing FlightAware ADS-B
Sat 10:01:15 PM 31.3499 -96.6075 156° South 509 586 31,000 500 Climbing FlightAware ADS-B
Sat 10:01:45 PM 31.2864 -96.5674 152° Southeast 514 592 31,000  Level FlightAware ADS-B
Sat 10:02:16 PM 31.2253 -96.5188 146° Southeast 517 595 31,000  Level FlightAware ADS-B
Sat 10:02:47 PM 31.1675 -96.4683 143° Southeast 518 596 31,000  Level FlightAware ADS-B
Sat 10:03:19 PM 31.1046 -96.4129 143° Southeast 518 596 31,000  Level FlightAware ADS-B
Sat 10:03:50 PM 31.0463 -96.3619 143° Southeast 519 597 31,000  Level FlightAware ADS-B
Sat 10:04:20 PM 30.9885 -96.3119 143° Southeast 519 597 31,000  Level FlightAware ADS-B
Sat 10:04:50 PM 30.9302 -96.2614 143° Southeast 518 596 31,000  Level FlightAware ADS-B
Sat 10:05:20 PM 30.8716 -96.2111 144° Southeast 518 596 31,000  Level FlightAware ADS-B
Sat 10:05:51 PM 30.8140 -96.1617 144° Southeast 518 596 31,000  Level FlightAware ADS-B
Sat 10:06:21 PM 30.7543 -96.1104 144° Southeast 520 598 31,000  Level FlightAware ADS-B
Sat 10:06:52 PM 30.6943 -96.0591 144° Southeast 520 598 31,000  Level FlightAware ADS-B
Sat 10:07:23 PM 30.6354 -96.0087 144° Southeast 520 598 31,000  Level FlightAware ADS-B
Sat 10:07:53 PM 30.5769 -95.9587 144° Southeast 520 598 31,000  Level FlightAware ADS-B
Sat 10:08:23 PM 30.5183 -95.9087 144° Southeast 520 598 31,000  Level FlightAware ADS-B
Sat 10:08:53 PM 30.4602 -95.8591 144° Southeast 521 600 31,000  Level FlightAware ADS-B
Sat 10:09:24 PM 30.4013 -95.8091 144° Southeast 521 600 31,000  Level FlightAware ADS-B
Sat 10:09:54 PM 30.3414 -95.7587 144° Southeast 521 600 31,000  Level FlightAware ADS-B
Sat 10:10:24 PM 30.2828 -95.7094 144° Southeast 520 598 31,000  Level FlightAware ADS-B
Sat 10:10:57 PM 30.2199 -95.6566 144° Southeast 521 600 31,000  Level FlightAware ADS-B
Sat 10:11:29 PM 30.1580 -95.6050 144° Southeast 519 597 31,000  Level FlightAware ADS-B
Sat 10:11:46 PM 30.1229 -95.5752 144° Southeast 520 598 31,000  Level FlightAware ADS-B
Sat 10:12:17 PM 30.0634 -95.5254 144° Southeast 520 598 31,000  Level FlightAware ADS-B
Sat 10:12:48 PM 30.0033 -95.4751 144° Southeast 520 598 31,000  Level FlightAware ADS-B
Sat 10:13:18 PM 29.9448 -95.4263 144° Southeast 520 598 31,000  Level FlightAware ADS-B
Sat 10:13:48 PM 29.8856 -95.3769 144° Southeast 520 598 31,000  Level FlightAware ADS-B
Sat 10:14:04 PM 29.8516 -95.3486 144° Southeast 521 600 31,000  Level FlightAware ADS-B (EGLF / FAB)
Sat 10:14:19 PM 29.8250 -95.3265 144° Southeast 521 600 31,000  Level FlightAware ADS-B
Sat 10:14:44 PM 29.7685 -95.2796 144° Southeast 521 600 31,000  Level FlightAware ADS-B (EGLF / FAB)
Sat 10:14:50 PM 29.7655 -95.2772 145° Southeast 521 600 31,000  Level FlightAware ADS-B
Sat 10:15:14 PM 29.7112 -95.2321 144° Southeast 524 603 31,000  Level FlightAware ADS-B (EGLF / FAB)
Sat 10:15:20 PM 29.7068 -95.2284 144° Southeast 523 602 31,000  Level FlightAware ADS-B
Sat 10:15:44 PM 29.6518 -95.1828 144° Southeast 524 603 31,000  Level FlightAware ADS-B (EGLF / FAB)
Sat 10:15:50 PM 29.6473 -95.1790 144° Southeast 523 602 31,000  Level FlightAware ADS-B
Sat 10:16:20 PM 29.5875 -95.1296 144° Southeast 523 602 31,000  Level FlightAware ADS-B
Sat 10:16:23 PM 29.5753 -95.1195 144° Southeast 524 603 31,000  Level FlightAware ADS-B (EGLF / FAB)
Sat 10:16:51 PM 29.5277 -95.0802 144° Southeast 524 603 31,000  Level FlightAware ADS-B
Sat 10:16:53 PM 29.5142 -95.0690 144° Southeast 524 603 31,000  Level FlightAware ADS-B (EGLF / FAB)
Sat 10:17:21 PM 29.4685 -95.0314 144° Southeast 524 603 31,000  Level FlightAware ADS-B
Sat 10:17:23 PM 29.4559 -95.0210 144° Southeast 524 603 31,000  Level FlightAware ADS-B (EGLF / FAB)
Sat 10:17:51 PM 29.4086 -94.9820 144° Southeast 525 604 31,000  Level FlightAware ADS-B
Sat 10:18:22 PM 29.3481 -94.9324 144° Southeast 525 604 31,000  Level FlightAware ADS-B
Sat 10:18:52 PM 29.2881 -94.8831 144° Southeast 525 604 31,000  Level FlightAware ADS-B
Sat 10:19:12 PM 29.2500 -94.8520 145° Southeast 524 603 31,000  Level FlightAware ADS-B
Sat 10:19:42 PM 29.1876 -94.8091 149° Southeast 522 601 31,000  Level FlightAware ADS-B
Sat 10:20:12 PM 29.1239 -94.7679 151° Southeast 522 601 31,000  Level FlightAware ADS-B
Sat 10:20:43 PM 29.0583 -94.7250 150° Southeast 524 603 31,000  Level FlightAware ADS-B
Sat 10:21:14 PM 28.9937 -94.6820 150° Southeast 524 603 31,000  Level FlightAware ADS-B
Sat 10:21:44 PM 28.9310 -94.6397 149° Southeast 524 603 31,000  Level FlightAware ADS-B
Sat 10:22:15 PM 28.8667 -94.5961 149° Southeast 523 602 31,000  Level FlightAware ADS-B
Sat 10:22:46 PM 28.8015 -94.5519 149° Southeast 524 603 31,000  Level FlightAware ADS-B
Sat 10:23:18 PM 28.7354 -94.5071 149° Southeast 524 603 31,000  Level FlightAware ADS-B
Sat 10:23:50 PM 28.6678 -94.4615 149° Southeast 524 603 31,000  Level FlightAware ADS-B
Sat 10:24:29 PM 28.5861 -94.4065 149° Southeast 523 602 31,000  Level FlightAware ADS-B
Sat 10:25:00 PM 28.5224 -94.3637 149° Southeast 523 602 31,000  Level FlightAware ADS-B
Sat 10:25:33 PM 28.4534 -94.3175 150° Southeast 522 601 31,000  Level FlightAware ADS-B
Sat 10:26:10 PM 28.3761 -94.2659 150° Southeast 521 600 31,000  Level FlightAware ADS-B
Sat 10:26:41 PM 28.3127 -94.2237 150° Southeast 520 598 31,000  Level FlightAware ADS-B
Sat 10:27:13 PM 28.2467 -94.1798 150° Southeast 519 597 31,000  Level FlightAware ADS-B
Sat 10:28:15 PM 28.1223 -94.0833 146° Southeast 519 597 31,000  Level FlightAware ADS-B
Sat 10:28:45 PM 28.1240 -94.0920 282° West 522 601 31,000  Level FlightAware ADS-B
Sat 10:29:21 PM 28.0610 -94.0490 149° Southeast 522 601 31,000  Level FlightAware ADS-B
Sat 10:29:57 PM 27.9980 -94.0060 149° Southeast 522 601 31,000  Level FlightAware ADS-B
Sat 10:30:33 PM 27.9340 -93.9630 149° Southeast 522 601 31,000  Level FlightAware ADS-B
Sat 10:31:09 PM 27.8710 -93.9200 149° Southeast 522 601 31,000  Level FlightAware ADS-B
Sat 10:31:45 PM 27.8080 -93.8770 149° Southeast 522 601 31,000  Level FlightAware ADS-B
Sat 10:32:21 PM 27.7440 -93.8340 149° Southeast 522 601 31,000  Level FlightAware ADS-B
Sat 10:32:57 PM 27.6810 -93.7910 149° Southeast 522 601 31,000  Level FlightAware ADS-B
Sat 10:33:33 PM 27.6170 -93.7480 149° Southeast 522 601 31,000  Level FlightAware ADS-B
Sat 10:34:09 PM 27.5540 -93.7050 149° Southeast 522 601 31,000  Level FlightAware ADS-B
Sat 10:34:46 PM 27.4890 -93.6610 149° Southeast 522 601 31,000  Level FlightAware ADS-B
Sat 10:35:29 PM 27.3286 -93.3317 149° Southeast 520 598 31,000  Level Houston Center
Sat 10:36:30 PM 27.2189 -93.2272 140° Southeast 519 597 31,000  Level Houston Center
Sat 10:37:30 PM 27.1103 -93.1275 141° Southeast 517 595 31,000  Level Houston Center
Sat 10:39:00 PM 26.9561 -92.9810 140° Southeast  Level FlightAware Approximate
Sat 10:46:00 PM 26.1652 -92.4121 150° Southeast  Level FlightAware Approximate
Sat 10:47:00 PM 26.0485 -92.3373 150° Southeast  Level FlightAware Approximate
Sat 10:48:00 PM 25.9317 -92.2627 150° Southeast  Level FlightAware Approximate
Sat 10:49:00 PM 25.8146 -92.1888 152° Southeast  Level FlightAware Approximate
Sat 10:50:00 PM 25.6962 -92.1177 152° Southeast  Level FlightAware Approximate
Sat 10:51:00 PM 25.5812 -92.0400 148° Southeast  Level FlightAware Approximate
Sat 10:52:00 PM 25.4674 -91.9603 148° Southeast  Level FlightAware Approximate
Sat 10:53:00 PM 25.3535 -91.8807 148° Southeast  Level FlightAware Approximate
Sat 10:54:00 PM 25.2378 -91.8045 149° Southeast  Level FlightAware Approximate
Sat 10:55:00 PM 25.1218 -91.7290 150° Southeast  Level FlightAware Approximate
Sat 10:56:00 PM 25.0057 -91.6537 150° Southeast  Level FlightAware Approximate
Sat 10:57:00 PM 24.8890 -91.5795 150° Southeast  Level FlightAware Approximate
Sat 10:58:00 PM 24.7723 -91.5054 150° Southeast  Level FlightAware Approximate
Sat 10:59:00 PM 24.6556 -91.4316 150° Southeast  Level FlightAware Approximate
Sat 11:00:00 PM 24.5412 -91.3593 150° Southeast  Level FlightAware Approximate
Sat 11:01:00 PM 24.4736 -91.2451 108° East  Level FlightAware Approximate
Sat 11:02:00 PM 24.4324 -91.1074 108° East  Level FlightAware Approximate
Sat 11:03:00 PM 24.3910 -90.9698 108° East  Level FlightAware Approximate
Sat 11:03:33 PM 24.2960 -90.6230 108° East 528 608 31,000  Level FlightAware ADS-B
Sat 11:04:10 PM 24.2740 -90.5430 107° East 528 608 31,000  Level FlightAware ADS-B
Sat 11:04:47 PM 24.2510 -90.4620 107° East 528 608 31,000  Level FlightAware ADS-B
Sat 11:05:23 PM 24.2290 -90.3840 107° East 528 608 31,000  Level FlightAware ADS-B
Sat 11:05:59 PM 24.2080 -90.3050 106° East 528 608 31,000  Level FlightAware ADS-B
Sat 11:06:52 PM 24.1480 -90.1130 109° East 525 604 31,000  Level FlightAware ADS-B
Sat 11:07:28 PM 24.1200 -90.0190 108° East 520 598 31,000  Level FlightAware ADS-B
Sat 11:08:02 PM 24.0930 -89.9260 108° East 520 598 31,000  Level FlightAware ADS-B
Sat 11:08:45 PM 24.0680 -89.8400 108° East 520 598 31,000  Level FlightAware ADS-B
Sat 11:09:21 PM 24.0470 -89.7630 107° East 520 598 31,000  Level FlightAware ADS-B
Sat 11:09:57 PM 24.0250 -89.6860 107° East 520 598 31,000  Level FlightAware ADS-B
Sat 11:10:32 PM 23.9830 -89.5580 110° East 31,000  Level FlightAware ADS-B
Sat 11:11:46 PM 23.9250 -89.3630 108° East 519 597 31,000  Level FlightAware ADS-B
Sat 11:12:27 PM 23.8930 -89.2560 108° East 519 597 31,000  Level FlightAware ADS-B
Sat 11:13:04 PM 23.8720 -89.1860 108° East 519 597 31,000  Level FlightAware ADS-B
Sat 11:13:48 PM 23.8430 -89.0890 108° East 516 594 31,000  Level FlightAware ADS-B
Sat 11:14:28 PM 23.8120 -88.9850 108° East 518 596 31,000  Level FlightAware ADS-B
Sat 11:15:16 PM 23.7740 -88.8580 108° East 518 596 31,000  Level FlightAware ADS-B
Sat 11:16:00 PM 23.7410 -88.7500 108° East 520 598 31,000  Level FlightAware ADS-B
Sat 11:16:36 PM 23.7180 -88.6730 108° East 520 598 31,000  Level FlightAware ADS-B
Sat 11:17:09 PM 23.6840 -88.5660 109° East 519 597 31,000  Level FlightAware ADS-B
Sat 11:17:56 PM 23.6520 -88.4590 108° East 519 597 31,000  Level FlightAware ADS-B
Sat 11:18:48 PM 23.6050 -88.3060 109° East 519 597 31,000  Level FlightAware ADS-B
Sat 11:19:23 PM 23.5760 -88.2120 109° East 521 600 31,000  Level FlightAware ADS-B
Sat 11:19:59 PM 23.5460 -88.1170 109° East 522 601 31,000  Level FlightAware ADS-B
Sat 11:20:41 PM 23.5170 -88.0220 108° East 524 603 31,000  Level FlightAware ADS-B
Sat 11:21:18 PM 23.4850 -87.9200 109° East 524 603 31,000  Level FlightAware ADS-B
Sat 11:21:49 PM 23.4630 -87.8500 109° East 524 603 31,000  Level FlightAware ADS-B
Sat 11:22:30 PM 23.4220 -87.7450 113° Southeast 525 604 31,000  Level FlightAware ADS-B
Sat 11:23:10 PM 23.3770 -87.6550 119° Southeast 526 605 31,000  Level FlightAware ADS-B
Sat 11:23:43 PM 23.3360 -87.5750 119° Southeast 525 604 31,000  Level FlightAware ADS-B
Sat 11:24:18 PM 23.2970 -87.4980 119° Southeast 525 604 31,000  Level FlightAware ADS-B
Sat 11:25:01 PM 23.2600 -87.4240 119° Southeast 525 604 31,000  Level FlightAware ADS-B
Sat 11:25:41 PM 23.1980 -87.3020 119° Southeast 525 604 31,000  Level FlightAware ADS-B
Sat 11:26:19 PM 23.1530 -87.2130 119° Southeast 526 605 31,000  Level FlightAware ADS-B
Sat 11:26:59 PM 23.1060 -87.1200 119° Southeast 526 605 31,000  Level FlightAware ADS-B
Sat 11:27:33 PM 23.0670 -87.0450 119° Southeast 526 605 31,000  Level FlightAware ADS-B
Sat 11:28:10 PM 23.0230 -86.9580 119° Southeast 526 605 31,000  Level FlightAware ADS-B
Sat 11:28:43 PM 22.9850 -86.8840 119° Southeast 526 605 31,000  Level FlightAware ADS-B
Sat 11:29:22 PM 22.9370 -86.7900 119° Southeast 528 608 31,000  Level FlightAware ADS-B
Sat 11:30:02 PM 22.8900 -86.7010 120° Southeast 528 608 31,000  Level FlightAware ADS-B
Sat 11:30:35 PM 22.8500 -86.6220 119° Southeast 530 610 31,000  Level FlightAware ADS-B
Sat 11:31:13 PM 22.8050 -86.5350 119° Southeast 532 612 31,000  Level FlightAware ADS-B
Sat 11:31:46 PM 22.7640 -86.4590 120° Southeast 533 613 31,000  Level FlightAware ADS-B
Sat 11:32:22 PM 22.7160 -86.3810 124° Southeast 533 613 31,000  Level FlightAware ADS-B
Sat 11:32:58 PM 22.6620 -86.2970 125° Southeast 534 615 31,000  Level FlightAware ADS-B
Sat 11:33:32 PM 22.6170 -86.2260 124° Southeast 534 615 31,000  Level FlightAware ADS-B
Sat 11:34:14 PM 22.5560 -86.1320 125° Southeast 534 615 31,000  Level FlightAware ADS-B
Sat 11:34:49 PM 22.5080 -86.0590 125° Southeast 534 615 31,000  Level FlightAware ADS-B
Sat 11:35:26 PM 22.4560 -85.9710 123° Southeast 534 615 31,000  Level FlightAware ADS-B
Sat 11:36:07 PM 22.4090 -85.8820 120° Southeast 533 613 31,000  Level FlightAware ADS-B
Sat 11:36:37 PM 22.3700 -85.8080 120° Southeast 532 612 31,000  Level FlightAware ADS-B
Sat 11:37:16 PM 22.3250 -85.7210 119° Southeast 531 611 31,000  Level FlightAware ADS-B
Sat 11:37:57 PM 22.2730 -85.6220 120° Southeast 528 608 31,000  Level FlightAware ADS-B
Sat 11:38:35 PM 22.2280 -85.5360 119° Southeast 524 603 31,000  Level FlightAware ADS-B
Sat 11:39:06 PM 22.1900 -85.4630 119° Southeast 523 602 31,000  Level FlightAware ADS-B
Sat 11:39:37 PM 22.1540 -85.3960 120° Southeast 523 602 31,000  Level FlightAware ADS-B
Sat 11:40:18 PM 22.1050 -85.3040 120° Southeast 525 604 31,000  Level FlightAware ADS-B
Sat 11:40:52 PM 22.0640 -85.2250 119° Southeast 523 602 31,000  Level FlightAware ADS-B
Sat 11:41:25 PM 22.0240 -85.1500 120° Southeast 524 603 31,000  Level FlightAware ADS-B
Sat 11:42:05 PM 21.9720 -85.0500 119° Southeast 524 603 31,000  Level FlightAware ADS-B
Sat 11:42:42 PM 21.9310 -84.9740 120° Southeast 524 603 31,000  Level FlightAware ADS-B
Sat 11:43:20 PM 21.8790 -84.8760 120° Southeast 522 601 31,000  Level FlightAware ADS-B
Sat 11:44:00 PM 21.8330 -84.7890 120° Southeast 523 602 31,000  Level FlightAware ADS-B
Sat 11:44:36 PM 21.7920 -84.7110 120° Southeast 521 600 31,000  Level FlightAware ADS-B
Sat 11:45:13 PM 21.7440 -84.6210 120° Southeast 522 601 31,000  Level FlightAware ADS-B
Sat 11:45:44 PM 21.7080 -84.5520 119° Southeast 521 600 31,000  Level FlightAware ADS-B
Sat 11:46:16 PM 21.6700 -84.4820 120° Southeast 521 600 31,000  Level FlightAware ADS-B
Sat 11:46:52 PM 21.6280 -84.4020 119° Southeast 522 601 31,000  Level FlightAware ADS-B
Sat 11:47:37 PM 21.5820 -84.3160 120° Southeast 520 598 31,000  Level FlightAware ADS-B
Sat 11:48:10 PM 21.5450 -84.2460 120° Southeast 520 598 31,000  Level FlightAware ADS-B
Sat 11:48:48 PM 21.5070 -84.1730 119° Southeast 520 598 31,000  Level FlightAware ADS-B
Sat 11:49:24 PM 21.4710 -84.1040 119° Southeast 520 598 31,000  Level FlightAware ADS-B
Sat 11:50:00 PM 21.4360 -84.0340 118° Southeast 520 598 31,000  Level FlightAware ADS-B
Sat 11:50:36 PM 21.4000 -83.9650 119° Southeast 520 598 31,000  Level FlightAware ADS-B
Sat 11:51:12 PM 21.3640 -83.8960 119° Southeast 520 598 31,000  Level FlightAware ADS-B
Sat 11:51:48 PM 21.3280 -83.8270 119° Southeast 520 598 31,000  Level FlightAware ADS-B
Sat 11:52:25 PM 21.2920 -83.7560 119° Southeast 520 598 31,000  Level FlightAware ADS-B
Sat 11:53:01 PM 21.2560 -83.6870 119° Southeast 520 598 31,000  Level FlightAware ADS-B
Sat 11:53:37 PM 21.2200 -83.6180 119° Southeast 520 598 31,000  Level FlightAware ADS-B
Sat 11:54:13 PM 21.1850 -83.5490 119° Southeast 520 598 31,000  Level FlightAware ADS-B
Sat 11:54:49 PM 21.1490 -83.4800 119° Southeast 520 598 31,000  Level FlightAware ADS-B
Sat 11:55:25 PM 21.1130 -83.4110 119° Southeast 520 598 31,000 21 Level FlightAware ADS-B
Sat 11:58:00 PM 20.8554 -83.1718 139° Southeast  Level Estimated
Sat 11:59:00 PM 20.7556 -83.0795 139° Southeast  Level Estimated
Sun 12:00:00 AM 20.6558 -82.9872 139° Southeast  Level Estimated
Sun 12:01:00 AM 20.5559 -82.8951 139° Southeast  Level Estimated
Sun 12:02:00 AM 20.4559 -82.8031 139° Southeast  Level Estimated
Sun 12:03:00 AM 20.3559 -82.7112 139° Southeast  Level Estimated
Sun 12:04:00 AM 20.2559 -82.6195 139° Southeast  Level Estimated
Sun 12:05:00 AM 20.1558 -82.5278 139° Southeast  Level Estimated
Sun 12:06:00 AM 20.0556 -82.4363 139° Southeast  Level Estimated
Sun 12:07:00 AM 19.9554 -82.3449 139° Southeast  Level Estimated
Sun 12:08:00 AM 19.8552 -82.2536 139° Southeast  Level Estimated
Sun 12:09:00 AM 19.7549 -82.1624 139° Southeast  Level Estimated
Sun 12:10:00 AM 19.6542 -82.0710 139° Southeast  Level Estimated
Sun 12:11:00 AM 19.5535 -81.9798 140° Southeast  Level Estimated
Sun 12:12:00 AM 19.4527 -81.8886 140° Southeast  Level Estimated
Sun 12:13:00 AM 19.3519 -81.7976 140° Southeast  Level Estimated
Sun 12:14:00 AM 19.2511 -81.7066 140° Southeast  Level Estimated
Sun 12:15:00 AM 19.1502 -81.6158 140° Southeast  Level Estimated
Sun 12:16:00 AM 19.0492 -81.5251 140° Southeast  Level Estimated
Sun 12:17:00 AM 18.9482 -81.4345 140° Southeast  Level Estimated
Sun 12:18:00 AM 18.8472 -81.3440 140° Southeast  Level Estimated
Sun 12:19:00 AM 18.7461 -81.2536 140° Southeast  Level Estimated
Sun 12:20:00 AM 18.6450 -81.1634 140° Southeast  Level Estimated
Sun 12:21:00 AM 18.5438 -81.0732 140° Southeast  Level Estimated
Sun 12:22:00 AM 18.4426 -80.9831 140° Southeast  Level Estimated
Sun 12:23:00 AM 18.3413 -80.8932 140° Southeast  Level Estimated
Sun 12:24:00 AM 18.2400 -80.8034 140° Southeast  Level Estimated
Sun 12:25:00 AM 18.1387 -80.7136 140° Southeast  Level Estimated
Sun 12:26:00 AM 18.0373 -80.6240 140° Southeast  Level Estimated
Sun 12:27:00 AM 17.9359 -80.5344 140° Southeast  Level Estimated
Sun 12:28:00 AM 17.8344 -80.4450 140° Southeast  Level Estimated
Sun 12:29:00 AM 17.7329 -80.3557 140° Southeast  Level Estimated
Sun 12:30:00 AM 17.6314 -80.2665 140° Southeast  Level Estimated
Sun 12:31:00 AM 17.5298 -80.1773 140° Southeast  Level Estimated
Sun 12:32:00 AM 17.4282 -80.0883 140° Southeast  Level Estimated
Sun 12:33:00 AM 17.3265 -79.9994 140° Southeast  Level Estimated
Sun 12:34:00 AM 17.2248 -79.9105 140° Southeast  Level Estimated
Sun 12:35:00 AM 17.1231 -79.8218 140° Southeast  Level Estimated
Sun 12:36:00 AM 17.0213 -79.7332 140° Southeast  Level Estimated
Sun 12:37:00 AM 16.9195 -79.6446 140° Southeast  Level Estimated
Sun 12:38:00 AM 16.8176 -79.5562 140° Southeast  Level Estimated
Sun 12:39:00 AM 16.7157 -79.4678 140° Southeast  Level Estimated
Sun 12:40:00 AM 16.6138 -79.3796 140° Southeast  Level Estimated
Sun 12:41:00 AM 16.5118 -79.2914 140° Southeast  Level Estimated
Sun 12:42:00 AM 16.4098 -79.2034 140° Southeast  Level Estimated
Sun 12:43:00 AM 16.3078 -79.1154 140° Southeast  Level Estimated
Sun 12:44:00 AM 16.2057 -79.0275 140° Southeast  Level Estimated
Sun 12:45:00 AM 16.1036 -78.9397 140° Southeast  Level Estimated
Sun 12:46:00 AM 16.0014 -78.8520 140° Southeast  Level Estimated
Sun 12:47:00 AM 15.8992 -78.7644 140° Southeast  Level Estimated
Sun 12:48:00 AM 15.7970 -78.6769 141° Southeast  Level Estimated
Sun 12:49:00 AM 15.6948 -78.5895 141° Southeast  Level Estimated
Sun 12:50:00 AM 15.5925 -78.5021 141° Southeast  Level Estimated
Sun 12:51:00 AM 15.4901 -78.4149 141° Southeast  Level Estimated
Sun 12:52:00 AM 15.3878 -78.3277 141° Southeast  Level Estimated
Sun 12:53:00 AM 15.2854 -78.2406 141° Southeast  Level Estimated
Sun 12:54:00 AM 15.1830 -78.1536 141° Southeast  Level Estimated
Sun 12:55:00 AM 15.0805 -78.0667 141° Southeast  Level Estimated
Sun 12:56:00 AM 14.9780 -77.9799 141° Southeast  Level Estimated
Sun 12:57:00 AM 14.8755 -77.8931 141° Southeast  Level Estimated
Sun 12:58:00 AM 14.7729 -77.8064 141° Southeast  Level Estimated
Sun 12:59:00 AM 14.6703 -77.7198 141° Southeast  Level Estimated
Sun 01:00:00 AM 14.5677 -77.6333 141° Southeast  Level Estimated
Sun 01:01:00 AM 14.4650 -77.5469 141° Southeast  Level Estimated
Sun 01:02:00 AM 14.3624 -77.4606 141° Southeast  Level Estimated
Sun 01:03:00 AM 14.2596 -77.3743 141° Southeast  Level Estimated
Sun 01:04:00 AM 14.1569 -77.2881 141° Southeast  Level Estimated
Sun 01:05:00 AM 14.0541 -77.2020 141° Southeast  Level Estimated
Sun 01:06:00 AM 13.9513 -77.1160 141° Southeast  Level Estimated
Sun 01:07:00 AM 13.8485 -77.0300 141° Southeast  Level Estimated
Sun 01:08:00 AM 13.7456 -76.9441 141° Southeast  Level Estimated
Sun 01:09:00 AM 13.6427 -76.8583 141° Southeast  Level Estimated
Sun 01:10:00 AM 13.5398 -76.7726 141° Southeast  Level Estimated
Sun 01:11:00 AM 13.4368 -76.6870 141° Southeast  Level Estimated
Sun 01:12:00 AM 13.3338 -76.6014 141° Southeast  Level Estimated
Sun 01:13:00 AM 13.2308 -76.5159 141° Southeast  Level Estimated
Sun 01:14:00 AM 13.1278 -76.4304 141° Southeast  Level Estimated
Sun 01:15:00 AM 13.0247 -76.3451 141° Southeast  Level Estimated
Sun 01:16:00 AM 12.9216 -76.2598 141° Southeast  Level Estimated
Sun 01:17:00 AM 12.8184 -76.1746 141° Southeast  Level Estimated
Sun 01:18:00 AM 12.7153 -76.0894 141° Southeast  Level Estimated
Sun 01:19:00 AM 12.6121 -76.0043 141° Southeast  Level Estimated
Sun 01:20:00 AM 12.5089 -75.9193 141° Southeast  Level Estimated
Sun 01:21:00 AM 12.4057 -75.8344 141° Southeast  Level Estimated
Sun 01:22:00 AM 12.3024 -75.7495 141° Southeast  Level Estimated
Sun 01:23:00 AM 12.1991 -75.6647 141° Southeast  Level Estimated
Sun 01:24:00 AM 12.0958 -75.5799 141° Southeast  Level Estimated
Sun 01:25:00 AM 11.9925 -75.4952 141° Southeast  Level Estimated
Sun 01:26:00 AM 11.8891 -75.4106 141° Southeast  Level Estimated
Sun 01:27:00 AM 11.7857 -75.3261 141° Southeast  Level Estimated
Sun 01:28:00 AM 11.6823 -75.2416 141° Southeast  Level Estimated
Sun 01:29:00 AM 11.5788 -75.1572 141° Southeast  Level Estimated
Sun 01:29:31 AM 12.4650 -72.9820 141° Southeast 482 555 33,000  Level FlightAware ADS-B
Sun 01:30:00 AM 11.4754 -75.0728 141° Southeast  Level Estimated
Sun 01:30:06 AM 12.3990 -72.9370 146° Southeast 482 555 33,000  Level FlightAware ADS-B
Sun 01:31:02 AM 12.3090 -72.8750 146° Southeast 482 555 33,000  Level FlightAware ADS-B
Sun 01:31:38 AM 12.2540 -72.8350 145° Southeast 482 555 33,000  Level FlightAware ADS-B
Sun 01:32:14 AM 12.1980 -72.7950 145° Southeast 482 555 33,000  Level FlightAware ADS-B
Sun 01:32:46 AM 12.0980 -72.7330 149° Southeast 488 562 33,000  Level FlightAware ADS-B
Sun 01:33:27 AM 12.0210 -72.6810 147° Southeast 482 555 33,000  Level FlightAware ADS-B
Sun 01:34:01 AM 11.9600 -72.6390 146° Southeast 483 556 33,000  Level FlightAware ADS-B
Sun 01:34:46 AM 11.8920 -72.5910 145° Southeast 483 556 33,000  Level FlightAware ADS-B
Sun 01:35:22 AM 11.8360 -72.5510 145° Southeast 483 556 33,000  Level FlightAware ADS-B
Sun 01:36:14 AM 11.7220 -72.4760 147° Southeast 485 558 33,000  Level FlightAware ADS-B
Sun 01:36:59 AM 11.6300 -72.4150 147° Southeast 485 558 33,000  Level FlightAware ADS-B
Sun 01:37:43 AM 11.5500 -72.3610 147° Southeast 485 558 33,000  Level FlightAware ADS-B
Sun 01:38:19 AM 11.4930 -72.3210 145° Southeast 485 558 33,000  Level FlightAware ADS-B
Sun 01:38:55 AM 11.4370 -72.2810 145° Southeast 485 558 33,000  Level FlightAware ADS-B
Sun 01:39:31 AM 11.3810 -72.2410 145° Southeast 485 558 33,000  Level FlightAware ADS-B
Sun 01:40:08 AM 11.3230 -72.1990 145° Southeast 485 558 33,000  Level FlightAware ADS-B
Sun 01:40:50 AM 11.1880 -72.1320 154° Southeast 488 562 33,000  Level FlightAware ADS-B
Sun 01:41:27 AM 11.1300 -72.0910 145° Southeast 488 562 33,000  Level FlightAware ADS-B
Sun 01:42:03 AM 11.0730 -72.0510 145° Southeast 488 562 33,000  Level FlightAware ADS-B
Sun 01:42:33 AM 10.9780 -71.9870 147° Southeast 487 560 33,000  Level FlightAware ADS-B
Sun 01:43:14 AM 10.8980 -71.9320 146° Southeast 487 560 33,000  Level FlightAware ADS-B
Sun 01:43:53 AM 10.8230 -71.8810 146° Southeast 487 560 33,000  Level FlightAware ADS-B
Sun 01:44:28 AM 10.7610 -71.8380 146° Southeast 487 560 33,000  Level FlightAware ADS-B
Sun 01:45:16 AM 10.6830 -71.7840 146° Southeast 486 559 33,000  Level FlightAware ADS-B
Sun 01:45:58 AM 10.5860 -71.7180 146° Southeast 490 564 33,000  Level FlightAware ADS-B
Sun 01:46:34 AM 10.5270 -71.6770 146° Southeast 485 558 33,000  Level FlightAware ADS-B
Sun 01:47:10 AM 10.4640 -71.6340 146° Southeast 485 558 33,000  Level FlightAware ADS-B
Sun 01:47:46 AM 10.4070 -71.5940 145° Southeast 485 558 33,000  Level FlightAware ADS-B
Sun 01:48:22 AM 10.3510 -71.5540 145° Southeast 485 558 33,000  Level FlightAware ADS-B
Sun 01:49:49 AM 10.1480 -71.4240 144° Southeast 33,000  Level FlightAware ADS-B
Sun 01:50:00 AM 10.1751 -71.4254 144° Southeast  Level Estimated
Sun 01:50:25 AM 10.0770 -71.3770 147° Southeast 488 562 33,000  Level FlightAware ADS-B
Sun 01:50:59 AM 10.0140 -71.3350 147° Southeast 489 563 33,000  Level FlightAware ADS-B
Sun 01:51:30 AM 9.9530 -71.2940 146° Southeast 489 563 33,000  Level FlightAware ADS-B
Sun 01:52:09 AM 9.8920 -71.2500 145° Southeast 489 563 33,000  Level FlightAware ADS-B
Sun 01:52:45 AM 9.8100 -71.1970 148° Southeast 494 568 33,000  Level FlightAware ADS-B
Sun 01:53:19 AM 9.7470 -71.1490 143° Southeast 495 570 33,000  Level FlightAware ADS-B
Sun 01:54:00 AM 9.6790 -71.0920 140° Southeast 487 560 33,000  Level FlightAware ADS-B
Sun 01:54:45 AM 9.5960 -71.0240 141° Southeast 487 560 33,000  Level FlightAware ADS-B
Sun 01:55:21 AM 9.5320 -70.9720 141° Southeast 487 560 33,000  Level FlightAware ADS-B
Sun 01:56:11 AM 9.4480 -70.9030 141° Southeast 486 559 33,000  Level FlightAware ADS-B
Sun 01:56:51 AM 9.3900 -70.8530 140° Southeast 486 559 33,000  Level FlightAware ADS-B
Sun 01:57:27 AM 9.3370 -70.8080 140° Southeast 486 559 33,000  Level FlightAware ADS-B
Sun 01:58:00 AM 9.2560 -70.7460 143° Southeast 483 556 33,000  Level FlightAware ADS-B
Sun 01:58:48 AM 9.1750 -70.6780 140° Southeast 484 557 33,000  Level FlightAware ADS-B
Sun 01:59:25 AM 9.1210 -70.6320 140° Southeast 484 557 33,000  Level FlightAware ADS-B
Sun 02:00:01 AM 9.0690 -70.5870 139° Southeast 484 557 33,000  Level FlightAware ADS-B
Sun 02:00:37 AM 9.0160 -70.5430 141° Southeast 484 557 33,000  Level FlightAware ADS-B
Sun 02:01:14 AM 8.9620 -70.4970 140° Southeast 484 557 33,000  Level FlightAware ADS-B
Sun 02:01:50 AM 8.9100 -70.4520 139° Southeast 484 557 33,000  Level FlightAware ADS-B
Sun 02:02:26 AM 8.8570 -70.4080 141° Southeast 484 557 33,000  Level FlightAware ADS-B
Sun 02:03:04 AM 8.8020 -70.3610 140° Southeast 484 557 33,000  Level FlightAware ADS-B
Sun 02:03:38 AM 8.7520 -70.3190 140° Southeast 484 557 33,000  Level FlightAware ADS-B
Sun 02:04:14 AM 8.7000 -70.2740 139° Southeast 484 557 33,000  Level FlightAware ADS-B
Sun 02:04:50 AM 8.6470 -70.2300 141° Southeast 484 557 33,000  Level FlightAware ADS-B
Sun 02:05:26 AM 8.5950 -70.1850 139° Southeast 484 557 33,000  Level FlightAware ADS-B
Sun 02:06:02 AM 8.5420 -70.1410 141° Southeast 484 557 33,000  Level FlightAware ADS-B
Sun 02:06:38 AM 8.4900 -70.0960 139° Southeast 484 557 33,000  Level FlightAware ADS-B
Sun 02:07:15 AM 8.4360 -70.0500 140° Southeast 484 557 33,000  Level FlightAware ADS-B
Sun 02:07:51 AM 8.3830 -70.0060 141° Southeast 484 557 33,000  Level FlightAware ADS-B
Sun 02:10:00 AM 8.1504 -69.8392 145° Southeast  Level Estimated
Sun 02:11:00 AM 8.0422 -69.7617 145° Southeast  Level Estimated
Sun 02:12:00 AM 7.9340 -69.6842 145° Southeast  Level Estimated
Sun 02:13:00 AM 7.8257 -69.6068 145° Southeast  Level Estimated
Sun 02:14:00 AM 7.7175 -69.5294 145° Southeast  Level Estimated
Sun 02:15:00 AM 7.6092 -69.4520 145° Southeast  Level Estimated
Sun 02:16:00 AM 7.5009 -69.3747 145° Southeast  Level Estimated
Sun 02:17:00 AM 7.3928 -69.2975 145° Southeast  Level Estimated
Sun 02:18:00 AM 7.2847 -69.2204 145° Southeast  Level Estimated
Sun 02:19:00 AM 7.1766 -69.1433 145° Southeast  Level Estimated
Sun 02:20:00 AM 7.0684 -69.0663 145° Southeast  Level Estimated
Sun 02:21:00 AM 6.9603 -68.9893 145° Southeast  Level Estimated
Sun 02:22:00 AM 6.8521 -68.9124 145° Southeast  Level Estimated
Sun 02:23:00 AM 6.7439 -68.8354 145° Southeast  Level Estimated
Sun 02:24:00 AM 6.6357 -68.7585 145° Southeast  Level Estimated
Sun 02:25:00 AM 6.5275 -68.6817 145° Southeast  Level Estimated
Sun 02:26:00 AM 6.4193 -68.6049 145° Southeast  Level Estimated
Sun 02:27:00 AM 6.3111 -68.5281 145° Southeast  Level Estimated
Sun 02:28:00 AM 6.2028 -68.4513 145° Southeast  Level Estimated
Sun 02:29:00 AM 6.0946 -68.3746 145° Southeast  Level Estimated
Sun 02:30:00 AM 5.9863 -68.2979 145° Southeast  Level Estimated
Sun 02:31:00 AM 5.8780 -68.2212 145° Southeast  Level Estimated
Sun 02:32:00 AM 5.7698 -68.1446 145° Southeast  Level Estimated
Sun 02:33:00 AM 5.6615 -68.0679 145° Southeast  Level Estimated
Sun 02:34:00 AM 5.5532 -67.9914 145° Southeast  Level Estimated
Sun 02:35:00 AM 5.4447 -67.9147 145° Southeast  Level Estimated
Sun 02:36:00 AM 5.3362 -67.8380 145° Southeast  Level Estimated
Sun 02:37:00 AM 5.2276 -67.7614 145° Southeast  Level Estimated
Sun 02:38:00 AM 5.1191 -67.6848 145° Southeast  Level Estimated
Sun 02:39:00 AM 5.0106 -67.6082 145° Southeast  Level Estimated
Sun 02:40:00 AM 4.9020 -67.5316 145° Southeast  Level Estimated
Sun 02:41:00 AM 4.7935 -67.4551 145° Southeast  Level Estimated
Sun 02:42:00 AM 4.6849 -67.3786 145° Southeast  Level Estimated
Sun 02:43:00 AM 4.5763 -67.3021 145° Southeast  Level Estimated
Sun 02:44:00 AM 4.4677 -67.2257 145° Southeast  Level Estimated
Sun 02:45:00 AM 4.3591 -67.1492 145° Southeast  Level Estimated
Sun 02:46:00 AM 4.2505 -67.0728 145° Southeast  Level Estimated
Sun 02:47:00 AM 4.1419 -66.9964 145° Southeast  Level Estimated
Sun 02:48:00 AM 4.0333 -66.9201 145° Southeast  Level Estimated
Sun 02:49:00 AM 3.9247 -66.8437 145° Southeast  Level Estimated
Sun 02:50:00 AM 3.8161 -66.7674 145° Southeast  Level Estimated
Sun 02:51:00 AM 3.7074 -66.6911 145° Southeast  Level Estimated
Sun 02:52:00 AM 3.5988 -66.6148 145° Southeast  Level Estimated
Sun 02:53:00 AM 3.4901 -66.5385 145° Southeast  Level Estimated
Sun 02:54:00 AM 3.3815 -66.4623 145° Southeast  Level Estimated
Sun 02:55:00 AM 3.2728 -66.3860 145° Southeast  Level Estimated
Sun 02:56:00 AM 3.1642 -66.3098 145° Southeast  Level Estimated
Sun 02:57:00 AM 3.0555 -66.2336 145° Southeast  Level Estimated
Sun 02:58:00 AM 2.9468 -66.1574 145° Southeast  Level Estimated
Sun 02:59:00 AM 2.8381 -66.0812 145° Southeast  Level Estimated
Sun 03:00:00 AM 2.7294 -66.0051 145° Southeast  Level Estimated
Sun 03:01:00 AM 2.6207 -65.9289 145° Southeast  Level Estimated
Sun 03:02:00 AM 2.5120 -65.8528 145° Southeast  Level Estimated
Sun 03:03:00 AM 2.4034 -65.7766 145° Southeast  Level Estimated
Sun 03:04:00 AM 2.2946 -65.7005 145° Southeast  Level Estimated
Sun 03:05:00 AM 2.1859 -65.6244 145° Southeast  Level Estimated
Sun 03:06:00 AM 2.0772 -65.5483 145° Southeast  Level Estimated
Sun 03:07:00 AM 1.9685 -65.4723 145° Southeast  Level Estimated
Sun 03:08:00 AM 1.8598 -65.3962 145° Southeast  Level Estimated
Sun 03:09:00 AM 1.7511 -65.3201 145° Southeast  Level Estimated
Sun 03:10:00 AM 1.6423 -65.2441 145° Southeast  Level Estimated
Sun 03:11:00 AM 1.5336 -65.1681 145° Southeast  Level Estimated
Sun 03:12:00 AM 1.4249 -65.0920 145° Southeast  Level Estimated
Sun 03:13:00 AM 1.3161 -65.0160 145° Southeast  Level Estimated
Sun 03:14:00 AM 1.2076 -64.9401 145° Southeast  Level Estimated
Sun 03:15:00 AM 1.0990 -64.8642 145° Southeast  Level Estimated
Sun 03:16:00 AM 0.9905 -64.7884 145° Southeast  Level Estimated
Sun 03:17:00 AM 0.8819 -64.7125 145° Southeast  Level Estimated
Sun 03:18:00 AM 0.7734 -64.6366 145° Southeast  Level Estimated
Sun 03:19:00 AM 0.6648 -64.5608 145° Southeast  Level Estimated
Sun 03:20:00 AM 0.5563 -64.4849 145° Southeast  Level Estimated
Sun 03:21:00 AM 0.4477 -64.4090 145° Southeast  Level Estimated
Sun 03:22:00 AM 0.3392 -64.3332 145° Southeast  Level Estimated
Sun 03:23:00 AM 0.2306 -64.2573 145° Southeast  Level Estimated
Sun 03:24:00 AM 0.1220 -64.1815 145° Southeast  Level Estimated
Sun 03:25:00 AM 0.0135 -64.1057 145° Southeast  Level Estimated
Sun 03:26:00 AM -0.0951 -64.0298 145° Southeast  Level Estimated
Sun 03:27:00 AM -0.2036 -63.9539 145° Southeast  Level Estimated
Sun 03:28:00 AM -0.3122 -63.8781 145° Southeast  Level Estimated
Sun 03:29:00 AM -0.4208 -63.8022 145° Southeast  Level Estimated
Sun 03:30:00 AM -0.5293 -63.7264 145° Southeast  Level Estimated
Sun 03:31:00 AM -0.6379 -63.6505 145° Southeast  Level Estimated
Sun 03:32:00 AM -0.7464 -63.5747 145° Southeast  Level Estimated
Sun 03:33:00 AM -0.8550 -63.4988 145° Southeast  Level Estimated
Sun 03:34:00 AM -0.9635 -63.4230 145° Southeast  Level Estimated
Sun 03:35:00 AM -1.0721 -63.3471 145° Southeast  Level Estimated
Sun 03:36:00 AM -1.1806 -63.2712 145° Southeast  Level Estimated
Sun 03:37:00 AM -1.2892 -63.1953 145° Southeast  Level Estimated
Sun 03:38:00 AM -1.3977 -63.1194 145° Southeast  Level Estimated
Sun 03:39:00 AM -1.5063 -63.0435 145° Southeast  Level Estimated
Sun 03:40:00 AM -1.6148 -62.9676 145° Southeast  Level Estimated
Sun 03:41:00 AM -1.7233 -62.8917 145° Southeast  Level Estimated
Sun 03:42:00 AM -1.8319 -62.8158 145° Southeast  Level Estimated
Sun 03:43:00 AM -1.9404 -62.7399 145° Southeast  Level Estimated
Sun 03:43:59 AM -1.4390 -61.3550 145° Southeast 490 564 33,000  Level FlightAware ADS-B
Sun 03:44:00 AM -2.0489 -62.6639 145° Southeast  Level Estimated
Sun 03:44:33 AM -1.5020 -61.3060 142° Southeast 492 566 33,000  Level FlightAware ADS-B
Sun 03:45:11 AM -1.5710 -61.2530 142° Southeast 492 566 33,000  Level FlightAware ADS-B
Sun 03:45:47 AM -1.6340 -61.2050 143° Southeast 492 566 33,000  Level FlightAware ADS-B
Sun 03:46:18 AM -1.6900 -61.1630 143° Southeast 493 567 33,000  Level FlightAware ADS-B
Sun 03:46:56 AM -1.7590 -61.1090 142° Southeast 492 566 33,000  Level FlightAware ADS-B
Sun 03:47:31 AM -1.8240 -61.0590 142° Southeast 493 567 33,000  Level FlightAware ADS-B
Sun 03:48:05 AM -1.8860 -61.0120 143° Southeast 493 567 33,000  Level FlightAware ADS-B
Sun 03:48:41 AM -1.9500 -60.9630 143° Southeast 493 567 33,000  Level FlightAware ADS-B
Sun 03:49:16 AM -2.0140 -60.9140 143° Southeast 492 566 33,000  Level FlightAware ADS-B
Sun 03:49:47 AM -2.0700 -60.8710 142° Southeast 493 567 33,000  Level FlightAware ADS-B
Sun 03:50:28 AM -2.1430 -60.8140 142° Southeast 493 567 33,000  Level FlightAware ADS-B
Sun 03:51:02 AM -2.2050 -60.7670 143° Southeast 492 566 33,000  Level FlightAware ADS-B
Sun 03:51:36 AM -2.2680 -60.7180 142° Southeast 491 565 33,000  Level FlightAware ADS-B
Sun 03:52:12 AM -2.3340 -60.6680 143° Southeast 491 565 33,000  Level FlightAware ADS-B
Sun 03:52:48 AM -2.3980 -60.6180 142° Southeast 491 565 33,000  Level FlightAware ADS-B
Sun 03:53:18 AM -2.4530 -60.5760 143° Southeast 491 565 33,000  Level FlightAware ADS-B
Sun 03:53:56 AM -2.5200 -60.5230 142° Southeast 491 565 33,000  Level FlightAware ADS-B
Sun 03:54:32 AM -2.5820 -60.4680 138° Southeast 490 564 33,000  Level FlightAware ADS-B
Sun 03:55:06 AM -2.6390 -60.4160 138° Southeast 490 564 33,000  Level FlightAware ADS-B
Sun 03:55:42 AM -2.6990 -60.3620 138° Southeast 489 563 33,000  Level FlightAware ADS-B
Sun 03:56:15 AM -2.7540 -60.3120 138° Southeast 490 564 33,000  Level FlightAware ADS-B
Sun 03:56:51 AM -2.8150 -60.2580 139° Southeast 489 563 33,000  Level FlightAware ADS-B
Sun 03:57:26 AM -2.8750 -60.2030 138° Southeast 489 563 33,000  Level FlightAware ADS-B
Sun 03:58:02 AM -2.9350 -60.1490 138° Southeast 489 563 33,000  Level FlightAware ADS-B
Sun 03:58:34 AM -2.9900 -60.1000 138° Southeast 489 563 33,000  Level FlightAware ADS-B
Sun 03:59:10 AM -3.0540 -60.0510 143° Southeast 493 567 33,000  Level FlightAware ADS-B
Sun 03:59:45 AM -3.1240 -60.0150 153° Southeast 496 571 33,000  Level FlightAware ADS-B
Sun 04:00:20 AM -3.1980 -59.9810 155° Southeast 497 572 33,000  Level FlightAware ADS-B
Sun 04:00:58 AM -3.2780 -59.9450 156° South 497 572 33,000  Level FlightAware ADS-B
Sun 04:01:30 AM -3.3470 -59.9130 155° Southeast 497 572 33,000  Level FlightAware ADS-B
Sun 04:02:06 AM -3.4210 -59.8790 155° Southeast 496 571 33,000  Level FlightAware ADS-B
Sun 04:02:42 AM -3.4960 -59.8440 155° Southeast 495 570 33,000  Level FlightAware ADS-B
Sun 04:03:16 AM -3.5670 -59.8110 155° Southeast 495 570 33,000  Level FlightAware ADS-B
Sun 04:03:50 AM -3.6370 -59.7760 153° Southeast 494 568 33,000  Level FlightAware ADS-B
Sun 04:04:28 AM -3.7130 -59.7330 151° Southeast 494 568 33,000  Level FlightAware ADS-B
Sun 04:05:00 AM -3.7760 -59.6960 150° Southeast 495 570 33,000  Level FlightAware ADS-B
Sun 04:05:36 AM -3.8490 -59.6530 150° Southeast 494 568 33,000  Level FlightAware ADS-B
Sun 04:06:12 AM -3.9190 -59.6120 150° Southeast 494 568 33,000  Level FlightAware ADS-B
Sun 04:06:44 AM -3.9800 -59.5760 150° Southeast 494 568 33,000  Level FlightAware ADS-B
Sun 04:07:38 AM -4.0810 -59.5170 150° Southeast 493 567 33,000  Level FlightAware ADS-B
Sun 04:08:15 AM -4.1420 -59.4800 149° Southeast 493 567 33,000  Level FlightAware ADS-B
Sun 04:08:52 AM -4.2040 -59.4430 149° Southeast 493 567 33,000  Level FlightAware ADS-B
Sun 04:09:29 AM -4.2650 -59.4060 149° Southeast 493 567 33,000  Level FlightAware ADS-B
Sun 04:10:06 AM -4.3270 -59.3690 149° Southeast 493 567 33,000  Level FlightAware ADS-B
Sun 04:10:42 AM -4.3860 -59.3330 149° Southeast 493 567 33,000  Level FlightAware ADS-B
Sun 04:11:18 AM -4.4460 -59.2970 149° Southeast 493 567 33,000  Level FlightAware ADS-B
Sun 04:11:53 AM -4.5040 -59.2620 149° Southeast 493 567 33,000  Level FlightAware ADS-B
Sun 04:12:29 AM -4.5640 -59.2260 149° Southeast 493 567 33,000  Level FlightAware ADS-B
Sun 04:13:05 AM -4.6240 -59.1900 149° Southeast 493 567 33,000  Level FlightAware ADS-B
Sun 04:13:42 AM -4.6860 -59.1530 149° Southeast 493 567 33,000  Level FlightAware ADS-B
Sun 04:14:19 AM -4.7470 -59.1160 149° Southeast 493 567 33,000  Level FlightAware ADS-B
Sun 04:14:55 AM -4.8070 -59.0800 149° Southeast 493 567 33,000  Level FlightAware ADS-B
Sun 04:15:31 AM -4.8670 -59.0440 149° Southeast 493 567 33,000  Level FlightAware ADS-B
Sun 04:16:07 AM -4.9260 -59.0080 149° Southeast 493 567 33,000  Level FlightAware ADS-B
Sun 04:16:43 AM -4.9860 -58.9710 148° Southeast 493 567 33,000 18 Level FlightAware ADS-B
Sun 04:19:00 AM -5.2425 -58.8102 148° Southeast  Level Estimated
Sun 04:20:00 AM -5.3548 -58.7398 148° Southeast  Level Estimated
Sun 04:21:00 AM -5.4672 -58.6693 148° Southeast  Level Estimated
Sun 04:22:00 AM -5.5795 -58.5989 148° Southeast  Level Estimated
Sun 04:23:00 AM -5.6918 -58.5283 148° Southeast  Level Estimated
Sun 04:24:00 AM -5.8041 -58.4578 148° Southeast  Level Estimated
Sun 04:25:00 AM -5.9164 -58.3872 148° Southeast  Level Estimated
Sun 04:26:00 AM -6.0287 -58.3166 148° Southeast  Level Estimated
Sun 04:27:00 AM -6.1409 -58.2460 148° Southeast  Level Estimated
Sun 04:28:00 AM -6.2532 -58.1753 148° Southeast  Level Estimated
Sun 04:29:00 AM -6.3654 -58.1046 148° Southeast  Level Estimated
Sun 04:30:00 AM -6.4781 -58.0336 148° Southeast  Level Estimated
Sun 04:31:00 AM -6.5907 -57.9626 148° Southeast  Level Estimated
Sun 04:32:00 AM -6.7033 -57.8916 148° Southeast  Level Estimated
Sun 04:33:00 AM -6.8159 -57.8205 148° Southeast  Level Estimated
Sun 04:34:00 AM -6.9285 -57.7494 148° Southeast  Level Estimated
Sun 04:35:00 AM -7.0411 -57.6783 148° Southeast  Level Estimated
Sun 04:36:00 AM -7.1537 -57.6071 148° Southeast  Level Estimated
Sun 04:37:00 AM -7.2663 -57.5359 148° Southeast  Level Estimated
Sun 04:38:00 AM -7.3788 -57.4647 148° Southeast  Level Estimated
Sun 04:39:00 AM -7.4914 -57.3934 148° Southeast  Level Estimated
Sun 04:40:00 AM -7.6039 -57.3221 148° Southeast  Level Estimated
Sun 04:41:00 AM -7.7164 -57.2507 148° Southeast  Level Estimated
Sun 04:42:00 AM -7.8289 -57.1793 148° Southeast  Level Estimated
Sun 04:43:00 AM -7.9415 -57.1079 148° Southeast  Level Estimated
Sun 04:44:00 AM -8.0539 -57.0364 148° Southeast  Level Estimated
Sun 04:45:00 AM -8.1664 -56.9649 148° Southeast  Level Estimated
Sun 04:46:00 AM -8.2789 -56.8934 148° Southeast  Level Estimated
Sun 04:47:00 AM -8.3913 -56.8218 148° Southeast  Level Estimated
Sun 04:48:00 AM -8.5037 -56.7501 148° Southeast  Level Estimated
Sun 04:49:00 AM -8.6162 -56.6785 148° Southeast  Level Estimated
Sun 04:50:00 AM -8.7286 -56.6068 148° Southeast  Level Estimated
Sun 04:51:00 AM -8.8410 -56.5350 148° Southeast  Level Estimated
Sun 04:52:00 AM -8.9533 -56.4632 148° Southeast  Level Estimated
Sun 04:53:00 AM -9.0657 -56.3913 148° Southeast  Level Estimated
Sun 04:54:00 AM -9.1781 -56.3195 148° Southeast  Level Estimated
Sun 04:55:00 AM -9.2904 -56.2475 148° Southeast  Level Estimated
Sun 04:56:00 AM -9.4027 -56.1755 148° Southeast  Level Estimated
Sun 04:57:00 AM -9.5152 -56.1034 148° Southeast  Level Estimated
Sun 04:58:00 AM -9.6277 -56.0312 148° Southeast  Level Estimated
Sun 04:59:00 AM -9.7402 -55.9589 148° Southeast  Level Estimated
Sun 05:00:00 AM -9.8527 -55.8866 148° Southeast  Level Estimated
Sun 05:01:00 AM -9.9651 -55.8143 148° Southeast  Level Estimated
Sun 05:02:00 AM -10.0775 -55.7419 148° Southeast  Level Estimated
Sun 05:03:00 AM -10.1900 -55.6694 148° Southeast  Level Estimated
Sun 05:04:00 AM -10.3024 -55.5969 148° Southeast  Level Estimated
Sun 05:05:00 AM -10.4147 -55.5243 148° Southeast  Level Estimated
Sun 05:06:00 AM -10.5271 -55.4517 148° Southeast  Level Estimated
Sun 05:07:00 AM -10.6395 -55.3791 148° Southeast  Level Estimated
Sun 05:08:00 AM -10.7518 -55.3063 148° Southeast  Level Estimated
Sun 05:09:00 AM -10.8641 -55.2336 148° Southeast  Level Estimated
Sun 05:10:00 AM -10.9764 -55.1608 148° Southeast  Level Estimated
Sun 05:11:00 AM -11.0887 -55.0879 148° Southeast  Level Estimated
Sun 05:12:00 AM -11.2010 -55.0149 147° Southeast  Level Estimated
Sun 05:13:00 AM -11.3132 -54.9419 147° Southeast  Level Estimated
Sun 05:14:00 AM -11.4254 -54.8689 147° Southeast  Level Estimated
Sun 05:15:00 AM -11.5377 -54.7958 147° Southeast  Level Estimated
Sun 05:16:00 AM -11.6500 -54.7225 147° Southeast  Level Estimated
Sun 05:17:00 AM -11.7624 -54.6491 147° Southeast  Level Estimated
Sun 05:18:00 AM -11.8748 -54.5757 147° Southeast  Level Estimated
Sun 05:19:00 AM -11.9871 -54.5022 147° Southeast  Level Estimated
Sun 05:20:00 AM -12.0994 -54.4287 147° Southeast  Level Estimated
Sun 05:21:00 AM -12.2117 -54.3551 147° Southeast  Level Estimated
Sun 05:22:00 AM -12.3240 -54.2814 147° Southeast  Level Estimated
Sun 05:23:00 AM -12.4363 -54.2077 147° Southeast  Level Estimated
Sun 05:24:00 AM -12.5485 -54.1339 147° Southeast  Level Estimated
Sun 05:25:00 AM -12.6607 -54.0601 147° Southeast  Level Estimated
Sun 05:26:00 AM -12.7729 -53.9862 147° Southeast  Level Estimated
Sun 05:27:00 AM -12.8851 -53.9122 147° Southeast  Level Estimated
Sun 05:28:00 AM -12.9973 -53.8381 147° Southeast  Level Estimated
Sun 05:29:00 AM -13.1094 -53.7640 147° Southeast  Level Estimated
Sun 05:30:00 AM -13.2215 -53.6898 147° Southeast  Level Estimated
Sun 05:31:00 AM -13.3336 -53.6156 147° Southeast  Level Estimated
Sun 05:32:00 AM -13.4457 -53.5413 147° Southeast  Level Estimated
Sun 05:33:00 AM -13.5577 -53.4669 147° Southeast  Level Estimated
Sun 05:34:00 AM -13.6698 -53.3924 147° Southeast  Level Estimated
Sun 05:35:00 AM -13.7817 -53.3179 147° Southeast  Level Estimated
Sun 05:36:00 AM -13.8937 -53.2433 147° Southeast  Level Estimated
Sun 05:37:00 AM -14.0057 -53.1686 147° Southeast  Level Estimated
Sun 05:38:00 AM -14.1176 -53.0939 147° Southeast  Level Estimated
Sun 05:39:00 AM -14.2295 -53.0190 147° Southeast  Level Estimated
Sun 05:40:00 AM -14.3414 -52.9441 147° Southeast  Level Estimated
Sun 05:41:00 AM -14.4533 -52.8692 147° Southeast  Level Estimated
Sun 05:42:00 AM -14.5651 -52.7941 147° Southeast  Level Estimated
Sun 05:43:00 AM -14.6770 -52.7190 147° Southeast  Level Estimated
Sun 05:44:00 AM -14.7888 -52.6438 147° Southeast  Level Estimated
Sun 05:45:00 AM -14.9005 -52.5685 147° Southeast  Level Estimated
Sun 05:46:00 AM -15.0123 -52.4932 147° Southeast  Level Estimated
Sun 05:47:00 AM -15.1240 -52.4177 147° Southeast  Level Estimated
Sun 05:48:00 AM -15.2357 -52.3422 147° Southeast  Level Estimated
Sun 05:49:00 AM -15.3474 -52.2666 147° Southeast  Level Estimated
Sun 05:50:00 AM -15.4592 -52.1908 147° Southeast  Level Estimated
Sun 05:51:00 AM -15.5710 -52.1149 147° Southeast  Level Estimated
Sun 05:52:00 AM -15.6828 -52.0390 147° Southeast  Level Estimated
Sun 05:53:00 AM -15.7946 -51.9629 147° Southeast  Level Estimated
Sun 05:54:00 AM -15.9063 -51.8868 147° Southeast  Level Estimated
Sun 05:55:00 AM -16.0180 -51.8106 147° Southeast  Level Estimated
Sun 05:56:00 AM -16.1297 -51.7342 147° Southeast  Level Estimated
Sun 05:57:00 AM -16.2414 -51.6578 147° Southeast  Level Estimated
Sun 05:58:00 AM -16.3530 -51.5814 147° Southeast  Level Estimated
Sun 05:59:00 AM -16.4646 -51.5048 147° Southeast  Level Estimated
Sun 06:00:00 AM -16.5762 -51.4281 147° Southeast  Level Estimated
Sun 06:01:00 AM -16.6877 -51.3514 147° Southeast  Level Estimated
Sun 06:02:00 AM -16.7993 -51.2745 147° Southeast  Level Estimated
Sun 06:03:00 AM -16.9108 -51.1976 147° Southeast  Level Estimated
Sun 06:04:00 AM -17.0222 -51.1206 147° Southeast  Level Estimated
Sun 06:05:00 AM -17.1336 -51.0435 147° Southeast  Level Estimated
Sun 06:06:00 AM -17.2451 -50.9663 147° Southeast  Level Estimated
Sun 06:06:03 AM -18.1840 -50.5360 147° Southeast 514 592 35,000  Level FlightAware ADS-B
Sun 06:06:36 AM -18.2460 -50.4860 143° Southeast 514 592 35,000  Level FlightAware ADS-B
Sun 06:07:18 AM -18.3140 -50.4310 142° Southeast 514 592 35,000  Level FlightAware ADS-B
Sun 06:07:55 AM -18.3720 -50.3820 141° Southeast 514 592 35,000  Level FlightAware ADS-B
Sun 06:08:31 AM -18.4300 -50.3350 142° Southeast 514 592 35,000  Level FlightAware ADS-B
Sun 06:09:09 AM -18.5390 -50.2510 144° Southeast 514 592 35,000  Level FlightAware ADS-B
Sun 06:09:46 AM -18.6060 -50.1960 142° Southeast 516 594 35,000  Level FlightAware ADS-B
Sun 06:10:26 AM -18.6840 -50.1340 143° Southeast 517 595 35,000  Level FlightAware ADS-B
Sun 06:11:00 AM -18.7480 -50.0810 142° Southeast 517 595 35,000  Level FlightAware ADS-B
Sun 06:11:38 AM -18.8200 -50.0230 143° Southeast 519 597 35,000  Level FlightAware ADS-B
Sun 06:12:13 AM -18.8850 -49.9710 143° Southeast 519 597 35,000  Level FlightAware ADS-B
Sun 06:12:47 AM -18.9530 -49.9150 142° Southeast 520 598 35,000  Level FlightAware ADS-B
Sun 06:13:21 AM -19.0170 -49.8630 142° Southeast 521 600 35,000  Level FlightAware ADS-B
Sun 06:13:57 AM -19.0860 -49.8070 143° Southeast 521 600 35,000  Level FlightAware ADS-B
Sun 06:14:33 AM -19.1550 -49.7510 143° Southeast 523 602 35,000  Level FlightAware ADS-B
Sun 06:15:07 AM -19.2210 -49.6960 142° Southeast 525 604 35,000  Level FlightAware ADS-B
Sun 06:15:43 AM -19.2880 -49.6390 141° Southeast 525 604 35,000  Level FlightAware ADS-B
Sun 06:16:18 AM -19.3550 -49.5830 142° Southeast 525 604 35,000  Level FlightAware ADS-B
Sun 06:16:51 AM -19.4180 -49.5300 142° Southeast 525 604 35,000  Level FlightAware ADS-B
Sun 06:17:27 AM -19.4850 -49.4730 141° Southeast 523 602 35,000  Level FlightAware ADS-B
Sun 06:18:03 AM -19.5540 -49.4150 142° Southeast 522 601 35,000  Level FlightAware ADS-B
Sun 06:18:35 AM -19.6140 -49.3640 141° Southeast 522 601 35,000  Level FlightAware ADS-B
Sun 06:19:19 AM -19.6990 -49.2930 142° Southeast 521 600 35,000  Level FlightAware ADS-B
Sun 06:19:55 AM -19.7660 -49.2360 141° Southeast 520 598 35,000  Level FlightAware ADS-B
Sun 06:20:28 AM -19.8280 -49.1840 142° Southeast 519 597 35,000  Level FlightAware ADS-B
Sun 06:21:04 AM -19.8970 -49.1250 141° Southeast 519 597 35,000  Level FlightAware ADS-B
Sun 06:21:38 AM -19.9560 -49.0750 141° Southeast 520 598 35,000  Level FlightAware ADS-B
Sun 06:22:15 AM -20.0240 -49.0180 142° Southeast 520 598 35,000  Level FlightAware ADS-B
Sun 06:22:50 AM -20.0960 -48.9560 141° Southeast 520 598 35,000  Level FlightAware ADS-B
Sun 06:23:23 AM -20.1570 -48.9050 142° Southeast 520 598 35,000  Level FlightAware ADS-B
Sun 06:23:58 AM -20.2230 -48.8480 141° Southeast 519 597 35,000  Level FlightAware ADS-B
Sun 06:24:34 AM -20.2910 -48.7900 141° Southeast 519 597 35,000  Level FlightAware ADS-B
Sun 06:25:10 AM -20.3640 -48.7420 148° Southeast 510 587 35,000  Level FlightAware ADS-B
Sun 06:25:42 AM -20.4320 -48.7040 152° Southeast 507 583 35,000  Level FlightAware ADS-B
Sun 06:26:19 AM -20.5080 -48.6640 154° Southeast 506 582 35,000  Level FlightAware ADS-B
Sun 06:26:54 AM -20.5830 -48.6240 153° Southeast 505 581 35,000  Level FlightAware ADS-B
Sun 06:27:28 AM -20.6530 -48.5870 154° Southeast 505 581 35,000  Level FlightAware ADS-B
Sun 06:28:04 AM -20.7270 -48.5470 153° Southeast 505 581 35,000  Level FlightAware ADS-B
Sun 06:28:40 AM -20.8050 -48.5060 154° Southeast 504 580 35,000  Level FlightAware ADS-B
Sun 06:29:14 AM -20.8740 -48.4660 152° Southeast 509 586 35,000  Level FlightAware ADS-B
Sun 06:29:48 AM -20.9410 -48.4140 144° Southeast 519 597 35,000  Level FlightAware ADS-B
Sun 06:30:24 AM -21.0050 -48.3500 137° Southeast 523 602 35,000  Level FlightAware ADS-B
Sun 06:31:00 AM -21.0670 -48.2870 137° Southeast 522 601 35,000  Level FlightAware ADS-B
Sun 06:31:36 AM -21.1300 -48.2220 136° Southeast 523 602 35,000  Level FlightAware ADS-B
Sun 06:32:08 AM -21.1850 -48.1660 136° Southeast 523 602 35,000  Level FlightAware ADS-B
Sun 06:32:44 AM -21.2490 -48.1010 137° Southeast 522 601 35,000  Level FlightAware ADS-B
Sun 06:33:20 AM -21.3120 -48.0360 136° Southeast 523 602 35,000  Level FlightAware ADS-B
Sun 06:33:54 AM -21.3730 -47.9750 137° Southeast 524 603 35,000  Level FlightAware ADS-B
Sun 06:34:30 AM -21.4350 -47.9110 136° Southeast 525 604 35,000  Level FlightAware ADS-B
Sun 06:35:06 AM -21.4990 -47.8460 137° Southeast 525 604 35,000  Level FlightAware ADS-B
Sun 06:35:38 AM -21.5550 -47.7880 136° Southeast 526 605 35,000  Level FlightAware ADS-B
Sun 06:36:14 AM -21.6190 -47.7220 136° Southeast 525 604 35,000  Level FlightAware ADS-B
Sun 06:36:51 AM -21.6820 -47.6570 136° Southeast 524 603 35,000  Level FlightAware ADS-B
Sun 06:37:22 AM -21.7370 -47.6000 136° Southeast 523 602 35,000 -269 Level FlightAware ADS-B
Sun 06:37:58 AM -21.8010 -47.5350 137° Southeast 524 603 34,700 -1,417 Descending FlightAware ADS-B
Sun 06:38:34 AM -21.8630 -47.4700 136° Southeast 527 606 33,300 -2,750 Descending FlightAware ADS-B
Sun 06:39:10 AM -21.9300 -47.4080 139° Southeast 525 604 31,400 -2,727 Descending FlightAware ADS-B
Sun 06:39:40 AM -21.9900 -47.3660 147° Southeast 511 588 30,300 -2,174 Descending FlightAware ADS-B
Sun 06:40:19 AM -22.0690 -47.3240 154° Southeast 494 568 28,900 -2,229 Descending FlightAware ADS-B
Sun 06:40:50 AM -22.1370 -47.2940 158° South 490 564 27,700 -2,087 Descending FlightAware ADS-B
Sun 06:41:28 AM -22.2180 -47.2580 158° South 489 563 26,500 -1,479 Descending FlightAware ADS-B
Sun 06:42:03 AM -22.2860 -47.2280 158° South 452 520 25,900 -1,500 Descending FlightAware ADS-B
Sun 06:42:40 AM -22.3550 -47.1970 157° South 407 468 24,700 -2,000 Descending FlightAware ADS-B
Sun 06:43:12 AM -22.4090 -47.1730 158° South 379 436 23,600 -2,486 Descending FlightAware ADS-B
Sun 06:43:50 AM -22.4680 -47.1470 158° South 362 417 21,800 -2,500 Descending FlightAware ADS-B
Sun 06:44:24 AM -22.5220 -47.1230 158° South 358 412 20,600 -1,612 Descending FlightAware ADS-B
Sun 06:44:57 AM -22.5700 -47.1010 157° South 352 405 20,000 -480 Descending FlightAware ADS-B
Sun 06:45:39 AM -22.6280 -47.0760 158° South 349 402 20,000 -456 Level FlightAware ADS-B
Sun 06:46:16 AM -22.6890 -47.0510 159° South 345 397 19,400 -1,297 Descending FlightAware ADS-B
Sun 06:46:53 AM -22.7460 -47.0270 159° South 345 397 18,400 -1,652 Descending FlightAware ADS-B
Sun 06:47:25 AM -22.7930 -47.0070 159° South 340 391 17,500 -1,853 Descending FlightAware ADS-B
Sun 06:48:01 AM -22.8450 -46.9850 159° South 334 384 16,300 -1,833 Descending FlightAware ADS-B
Sun 06:48:37 AM -22.8970 -46.9630 159° South 328 377 15,300 -1,739 Descending FlightAware ADS-B
Sun 06:49:10 AM -22.9430 -46.9440 159° South 322 371 14,300 -1,765 Descending FlightAware ADS-B
Sun 06:49:45 AM -22.9910 -46.9240 159° South 309 356 13,300 -1,944 Descending FlightAware ADS-B
Sun 06:50:21 AM -23.0390 -46.9040 159° South 304 350 12,000 -2,057 Descending FlightAware ADS-B
Sun 06:50:55 AM -23.0830 -46.8850 158° South 302 348 10,900 -1,935 Descending FlightAware ADS-B
Sun 06:51:23 AM -23.1200 -46.8690 158° South 298 343 10,000 -1,750 Descending FlightAware ADS-B
Sun 06:51:43 AM -23.1460 -46.8590 161° South 297 342 9,500 -1,429 Descending FlightAware ADS-B
Sun 06:52:05 AM -23.1740 -46.8470 158° South 295 339 9,000 -1,304 Descending FlightAware ADS-B
Sun 06:52:29 AM -23.2050 -46.8340 159° South 296 341 8,500 -1,227 Descending FlightAware ADS-B
Sun 06:52:49 AM -23.2300 -46.8230 158° South 295 339 8,100 -1,050 Descending FlightAware ADS-B
Sun 06:53:09 AM -23.2560 -46.8120 159° South 290 334 7,800 -750 Descending FlightAware ADS-B
Sun 06:53:29 AM -23.2800 -46.8020 159° South 277 319 7,600 -545 Descending FlightAware ADS-B
Sun 06:53:53 AM -23.3070 -46.7900 158° South 259 298 7,400 -409 Descending FlightAware ADS-B
Sun 06:54:13 AM -23.3280 -46.7810 159° South 240 276 7,300 -300 Descending FlightAware ADS-B
Sun 06:54:33 AM -23.3490 -46.7730 161° South 233 268 7,200 -450 Descending FlightAware ADS-B
Sun 06:54:53 AM -23.3700 -46.7630 156° South 232 267 7,000 -429 Descending FlightAware ADS-B
Sun 06:55:01 AM -23.3770 -46.7580 147° Southeast 233 268 7,000 -207 Level FlightAware ADS-B
Sun 06:55:22 AM -23.3930 -46.7440 141° Southeast 226 260 6,900 -375 Descending FlightAware ADS-B
Sun 06:55:33 AM -23.4020 -46.7350 137° Southeast 218 251 6,800 -811 Descending FlightAware ADS-B
Sun 06:55:59 AM -23.4220 -46.7160 139° Southeast 212 244 6,400 -913 Descending FlightAware ADS-B
Sun 06:56:19 AM -23.4360 -46.7030 140° Southeast 209 241 6,100 -1,050 Descending FlightAware ADS-B
Sun 06:56:39 AM -23.4500 -46.6870 134° Southeast 207 238 5,700 -1,200 Descending FlightAware ADS-B
Sun 06:56:59 AM -23.4580 -46.6690 116° Southeast 201 231 5,300 -1,000 Descending FlightAware ADS-B
Sun 06:57:15 AM -23.4640 -46.6550 115° Southeast 186 214 5,100 -667 Descending FlightAware ADS-B
Sun 06:57:35 AM -23.4710 -46.6380 114° Southeast 183 211 4,900 -581 Descending FlightAware ADS-B
Sun 06:57:46 AM -23.4740 -46.6290 110° East 180 207 4,800 -800 Descending FlightAware ADS-B
Sun 06:57:50 AM -23.4740 -46.6250 90° East 179 206 4,700 -720 Descending FlightAware ADS-B
Sun 06:58:11 AM -23.4710 -46.6070 80° East 179 206 4,500 -878 Descending FlightAware ADS-B
Sun 06:58:31 AM -23.4660 -46.5890 73° East 178 205 4,100 -1,105 Descending FlightAware ADS-B
Sun 06:58:49 AM -23.4620 -46.5730 75° East 180 207 3,800 -878 Descending FlightAware ADS-B
Sun 06:59:12 AM -23.4570 -46.5550 73° East 165 190 3,500 -913 Descending FlightAware ADS-B
Sun 06:59:35 AM -23.4520 -46.5370 73° East 158 182 3,100 -857 Descending FlightAware ADS-B
Sun 06:59:54 AM -23.4490 -46.5240 76° East 157 181 2,900 -750 Descending FlightAware ADS-B
Sun 07:00:15 AM -23.4440 -46.5070 72° East 157 181 2,600 -792 Descending FlightAware ADS-B
Sun 07:00:47 AM -23.4380 -46.4830 75° East 154 177 2,200 -750 Descending FlightAware ADS-B
Sun 07:01:11 AM -23.4340 -46.4690 73° East 88 101 -5,500 Descending FlightAware ADS-B
Sun 07:01:36 AM -23.4310 -46.4600 70° East 88 101  Level FlightAware ADS-B

Login

Don't have an account? Register now (free) for customized features, flight alerts, and more!